KAVX/AVX METAR and TAF weather

Enter ICAO airport designator
Station Type Date Time Source
KAVX METAR 2022/10/01 07:51 UTC NOAA

KAVX 010751Z AUTO VRB05KT 10SM OVC006 16/13 A2988 RMK AO2 SLP102 T01560128 402110150 $


Station Type Date Time Source
KAVX Decoded METAR 2022/10/01 07:51 UTC NOAA

AVALON CATALINA AIRPORT, CA, United States (KAVX) 33-24N 118-25W 482M
Oct 01, 2022 - 03:51 AM EDT / 2022.10.01 0751 UTC
Wind: Variable at 6 MPH (5 KT):0
Visibility: 10 mile(s):0
Sky conditions: overcast
Temperature: 60.1 F (15.6 C)
Dew Point: 55.0 F (12.8 C)
Relative Humidity: 83%
Pressure (altimeter): 29.88 in. Hg (1011 hPa)
ob: KAVX 010751Z AUTO VRB05KT 10SM OVC006 16/13 A2988 RMK AO2 SLP102 T01560128 402110150
cycle: 8

Station Type Date Time Source
KAVX TAF UTC NOAA

Error!

Example: see airport list